createdAt,value
2019-03-22T00:02:10.863Z,102800.63
2019-03-22T00:04:42.354Z,102803.20
2019-03-22T00:07:13.696Z,102802.14
2019-03-22T00:09:45.024Z,102797.25
2019-03-22T00:12:16.415Z,102789.57
2019-03-22T00:14:47.738Z,102800.81
2019-03-22T00:17:19.073Z,102793.59
2019-03-22T00:19:50.480Z,102791.20
2019-03-22T00:22:21.734Z,102788.70
2019-03-22T00:24:53.039Z,102787.55
2019-03-22T00:27:24.328Z,102783.18
2019-03-22T00:29:55.669Z,102778.70
2019-03-22T00:32:27.020Z,102785.38
2019-03-22T00:34:58.554Z,102772.63
2019-03-22T00:37:29.835Z,102777.91
2019-03-22T00:40:01.133Z,102780.36
2019-03-22T00:42:32.486Z,102777.70
2019-03-22T00:45:03.803Z,102775.52
2019-03-22T00:47:35.131Z,102773.13
2019-03-22T00:50:06.706Z,102775.59
2019-03-22T00:52:38.017Z,102777.69
2019-03-22T00:55:10.155Z,102781.09
2019-03-22T00:57:41.471Z,102778.27
2019-03-22T01:00:13.465Z,102781.86
2019-03-22T01:02:44.826Z,102784.59
2019-03-22T01:05:17.603Z,102797.23
2019-03-22T01:07:49.449Z,102794.34
2019-03-22T01:10:20.856Z,102794.14
2019-03-22T01:12:52.178Z,102791.88
2019-03-22T01:15:23.512Z,102792.25
2019-03-22T01:17:54.905Z,102787.92
2019-03-22T01:20:26.182Z,102792.58
2019-03-22T01:23:00.037Z,102798.78
2019-03-22T01:25:30.625Z,102809.84
2019-03-22T01:28:01.886Z,102800.68
2019-03-22T01:30:33.138Z,102805.57
2019-03-22T01:33:04.559Z,102802.31
2019-03-22T01:35:35.909Z,102789.55
2019-03-22T01:38:07.287Z,102784.73
2019-03-22T01:40:38.632Z,102781.47
2019-03-22T01:43:10.111Z,102783.59
2019-03-22T01:45:41.408Z,102777.05
2019-03-22T01:48:12.753Z,102779.82
2019-03-22T01:50:44.228Z,102773.94
2019-03-22T01:53:15.640Z,102773.23
2019-03-22T01:55:46.904Z,102772.84
2019-03-22T01:58:18.216Z,102773.53
2019-03-22T02:00:49.453Z,102778.89
2019-03-22T02:03:20.856Z,102781.45
2019-03-22T02:05:52.233Z,102775.48
2019-03-22T02:08:23.982Z,102778.48
2019-03-22T02:10:55.358Z,102785.72
2019-03-22T02:13:26.758Z,102793.56
2019-03-22T02:15:58.160Z,102797.19
2019-03-22T02:18:29.407Z,102788.91
2019-03-22T02:21:00.783Z,102781.22
2019-03-22T02:23:32.077Z,102775.28
2019-03-22T02:26:03.374Z,102777.75
2019-03-22T02:28:34.662Z,102783.63
2019-03-22T02:31:06.017Z,102781.76
2019-03-22T02:33:37.344Z,102779.31
2019-03-22T02:36:08.659Z,102781.25
2019-03-22T02:38:40.008Z,102781.95
2019-03-22T02:41:11.415Z,102777.16
2019-03-22T02:43:42.763Z,102780.38
2019-03-22T02:46:14.127Z,102785.18
2019-03-22T02:48:45.429Z,102780.04
2019-03-22T02:51:16.826Z,102779.33
2019-03-22T02:53:48.122Z,102781.78
2019-03-22T02:56:19.463Z,102783.73
2019-03-22T02:58:50.746Z,102777.86
2019-03-22T03:01:22.063Z,102781.48
2019-03-22T04:24:49.036Z,102774.38
2019-03-22T04:27:23.929Z,102776.81
2019-03-22T04:29:56.842Z,102779.36
2019-03-22T04:32:29.340Z,102784.24
2019-03-22T04:35:00.778Z,102785.02
2019-03-22T04:37:54.070Z,102784.31
2019-03-22T04:40:28.864Z,102790.45
2019-03-22T04:43:00.429Z,102796.78
2019-03-22T04:45:34.815Z,102796.23
2019-03-22T04:48:14.754Z,102800.19
2019-03-22T04:50:49.812Z,102802.05
2019-03-22T04:53:27.400Z,102808.09
2019-03-22T04:56:04.783Z,102812.59
2019-03-22T04:58:43.467Z,102813.42
2019-03-22T05:01:18.879Z,102806.90
2019-03-22T05:03:50.665Z,102811.27
2019-03-22T05:06:23.538Z,102811.66
2019-03-22T05:08:57.253Z,102814.67
2019-03-22T05:11:30.050Z,102811.66
2019-03-22T05:14:05.273Z,102815.36
2019-03-22T05:16:41.902Z,102822.71
2019-03-22T05:19:17.207Z,102820.17
2019-03-22T05:21:51.464Z,102827.98
2019-03-22T05:24:25.669Z,102824.29
2019-03-22T05:26:59.827Z,102822.07
2019-03-22T05:29:34.979Z,102825.67
2019-03-22T05:32:14.725Z,102829.63
2019-03-22T05:34:46.059Z,102835.63
2019-03-22T05:37:17.345Z,102843.73
2019-03-22T05:39:48.687Z,102846.84
2019-03-22T05:42:20.004Z,102841.42
2019-03-22T05:44:51.263Z,102846.69
2019-03-22T05:47:22.633Z,102839.59
2019-03-22T05:49:53.932Z,102841.42
2019-03-22T05:52:25.232Z,102852.12
2019-03-22T05:54:56.540Z,102865.36
2019-03-22T05:57:27.909Z,102865.61
2019-03-22T05:59:59.234Z,102867.00
2019-03-22T06:02:30.578Z,102861.66
2019-03-22T06:05:01.851Z,102856.06
2019-03-22T06:07:33.134Z,102865.13
2019-03-22T06:10:04.688Z,102870.89
2019-03-22T06:12:35.998Z,102868.28
2019-03-22T06:15:08.320Z,102861.18
2019-03-22T06:17:50.907Z,102859.06
2019-03-22T06:20:12.664Z,102854.47
2019-03-22T06:22:43.921Z,102858.55
2019-03-22T06:25:15.166Z,102855.02
2019-03-22T06:27:46.418Z,102861.05
2019-03-22T06:30:17.774Z,102850.90
2019-03-22T06:32:49.103Z,102851.55
2019-03-22T06:35:20.428Z,102855.43
2019-03-22T06:37:51.766Z,102851.55
2019-03-22T06:40:23.178Z,102849.71
2019-03-22T06:42:54.489Z,102849.45
2019-03-22T06:45:25.828Z,102837.44
2019-03-22T06:47:56.988Z,102834.80
2019-03-22T06:50:28.403Z,102839.17
2019-03-22T06:52:59.771Z,102837.53
2019-03-22T06:55:31.096Z,102829.46
2019-03-22T06:58:02.383Z,102833.00
2019-03-22T07:00:33.656Z,102829.91
2019-03-22T07:03:05.026Z,102834.47
2019-03-22T07:05:36.313Z,102838.59
2019-03-22T07:08:07.653Z,102842.34
2019-03-22T07:10:38.956Z,102845.71
2019-03-22T07:13:10.365Z,102841.44
2019-03-22T07:15:41.714Z,102844.08
2019-03-22T07:18:13.047Z,102838.80
2019-03-22T07:20:44.394Z,102833.45
2019-03-22T07:23:15.722Z,102846.52
2019-03-22T07:25:47.646Z,102839.55
2019-03-22T07:28:18.977Z,102846.07
2019-03-22T07:30:50.289Z,102838.34
2019-03-22T07:33:21.647Z,102843.17
2019-03-22T07:35:52.960Z,102833.48
2019-03-22T07:38:27.163Z,102835.80
2019-03-22T07:40:58.376Z,102831.51
2019-03-22T07:43:29.848Z,102835.30
2019-03-22T07:46:01.302Z,102832.61
2019-03-22T07:48:32.632Z,102834.80
2019-03-22T07:51:04.058Z,102826.95
2019-03-22T07:53:35.369Z,102827.81
2019-03-22T07:56:06.886Z,102833.10
2019-03-22T07:58:38.183Z,102837.99
2019-03-22T08:01:09.487Z,102826.82
2019-03-22T08:03:40.797Z,102826.06
2019-03-22T08:06:12.131Z,102815.99
2019-03-22T08:08:43.432Z,102819.39
2019-03-22T08:11:14.798Z,102817.55
2019-03-22T08:13:46.035Z,102820.50
2019-03-22T08:16:17.280Z,102823.45
2019-03-22T08:18:48.637Z,102819.73
2019-03-22T08:21:19.978Z,102817.86
2019-03-22T08:23:51.322Z,102819.34
2019-03-22T08:26:22.642Z,102821.61
2019-03-22T08:28:53.874Z,102818.80
2019-03-22T08:31:25.070Z,102819.44
2019-03-22T08:33:56.406Z,102815.06
2019-03-22T08:36:27.590Z,102811.50
2019-03-22T08:38:58.763Z,102809.33
2019-03-22T08:41:30.143Z,102805.67
2019-03-22T08:44:02.852Z,102817.95
2019-03-22T08:46:34.475Z,102816.33
2019-03-22T08:49:09.077Z,102806.67
2019-03-22T08:51:38.814Z,102818.03
2019-03-22T08:54:10.034Z,102809.08
2019-03-22T08:56:41.339Z,102809.33
2019-03-22T08:59:13.543Z,102803.95
2019-03-22T09:01:45.053Z,102807.84
2019-03-22T09:04:16.327Z,102803.18
2019-03-22T09:06:47.627Z,102810.80
2019-03-22T09:09:18.742Z,102802.95
2019-03-22T09:11:50.048Z,102804.19
2019-03-22T09:14:21.279Z,102802.95
2019-03-22T09:16:52.665Z,102794.41
2019-03-22T09:19:23.908Z,102791.81
2019-03-22T09:21:55.266Z,102790.11
2019-03-22T09:24:38.518Z,102796.45
2019-03-22T09:26:59.557Z,102784.48
2019-03-22T09:29:30.743Z,102794.34
2019-03-22T09:32:02.009Z,102784.80
2019-03-22T09:34:34.247Z,102784.56
2019-03-22T09:37:08.641Z,102790.00
2019-03-22T09:39:39.073Z,102788.56
2019-03-22T09:42:10.390Z,102785.08
2019-03-22T09:44:43.839Z,102784.60
2019-03-22T09:47:16.504Z,102782.03
2019-03-22T09:49:47.589Z,102781.23
2019-03-22T09:52:18.914Z,102778.66
2019-03-22T09:54:50.623Z,102786.30
2019-03-22T09:57:21.938Z,102775.01
2019-03-22T09:59:53.248Z,102769.03
2019-03-22T10:02:24.556Z,102767.42
2019-03-22T10:04:55.798Z,102762.23
2019-03-22T10:07:27.179Z,102756.14
2019-03-22T10:09:58.361Z,102753.44
2019-03-22T10:12:29.705Z,102751.06
2019-03-22T10:15:01.039Z,102752.77
2019-03-22T10:17:32.325Z,102738.59
2019-03-22T10:20:03.508Z,102743.88
2019-03-22T10:22:34.924Z,102748.70
2019-03-22T10:25:06.721Z,102742.15
2019-03-22T10:27:38.067Z,102733.95
2019-03-22T10:30:09.977Z,102722.47
2019-03-22T10:32:41.255Z,102727.38
2019-03-22T10:35:25.436Z,102727.06
2019-03-22T10:37:45.930Z,102727.47
2019-03-22T10:40:17.425Z,102725.44
2019-03-22T10:42:48.849Z,102719.19
2019-03-22T10:45:20.271Z,102713.31
2019-03-22T10:47:51.579Z,102711.30
2019-03-22T10:50:22.907Z,102708.07
2019-03-22T10:52:54.230Z,102703.90
2019-03-22T10:55:30.308Z,102707.31
2019-03-22T10:57:58.243Z,102698.27
2019-03-22T11:00:29.657Z,102700.23
2019-03-22T11:03:00.976Z,102689.66
2019-03-22T11:05:32.312Z,102683.74
2019-03-22T11:08:03.556Z,102686.30
2019-03-22T11:10:34.839Z,102682.61
2019-03-22T11:13:06.446Z,102670.00
2019-03-22T11:15:47.919Z,102667.90
2019-03-22T11:18:10.886Z,102667.67
2019-03-22T11:20:42.278Z,102665.70
2019-03-22T11:23:13.459Z,102665.03
2019-03-22T11:25:44.804Z,102658.80
2019-03-22T11:28:16.195Z,102666.87
2019-03-22T11:30:47.529Z,102661.05
2019-03-22T11:33:18.830Z,102665.22
2019-03-22T11:35:50.204Z,102664.87
2019-03-22T11:38:23.002Z,102663.59
2019-03-22T11:40:54.346Z,102662.16
2019-03-22T11:43:25.738Z,102657.27
2019-03-22T11:45:56.928Z,102648.70
2019-03-22T11:48:28.231Z,102651.12
2019-03-22T11:50:59.477Z,102654.70
2019-03-22T11:53:30.695Z,102661.25
2019-03-22T11:56:02.052Z,102651.52
2019-03-22T11:58:33.366Z,102650.13
2019-03-22T12:01:04.634Z,102641.37
2019-03-22T12:03:35.977Z,102636.25
2019-03-22T12:06:07.485Z,102642.63
2019-03-22T12:08:38.764Z,102634.09
2019-03-22T12:11:10.011Z,102634.43
2019-03-22T12:13:41.374Z,102633.68
2019-03-22T12:16:12.701Z,102633.12
2019-03-22T12:18:44.004Z,102624.98
2019-03-22T12:21:15.385Z,102617.85
2019-03-22T12:23:46.770Z,102620.18
2019-03-22T12:26:18.073Z,102614.21
2019-03-22T12:28:49.417Z,102612.33
2019-03-22T12:31:20.764Z,102596.41
2019-03-22T12:33:52.006Z,102597.69
2019-03-22T12:36:23.267Z,102592.69
2019-03-22T12:38:54.566Z,102591.84
2019-03-22T12:41:25.805Z,102588.63
2019-03-22T12:43:57.304Z,102580.53
2019-03-22T12:46:28.585Z,102590.93
2019-03-22T12:48:59.887Z,102584.30
2019-03-22T12:51:31.225Z,102587.88
2019-03-22T12:54:02.599Z,102586.00
2019-03-22T12:56:33.808Z,102582.29
2019-03-22T12:59:05.112Z,102582.50
2019-03-22T13:01:36.403Z,102577.70
2019-03-22T13:04:07.961Z,102565.96
2019-03-22T13:06:39.330Z,102562.11
2019-03-22T13:09:11.380Z,102562.64
2019-03-22T13:11:42.679Z,102559.93
2019-03-22T13:14:13.971Z,102557.05
2019-03-22T13:16:45.256Z,102555.16
2019-03-22T13:19:16.597Z,102548.48
2019-03-22T13:21:47.963Z,102549.45
2019-03-22T13:24:19.334Z,102546.19
2019-03-22T13:26:50.689Z,102530.09
2019-03-22T13:29:22.024Z,102534.47
2019-03-22T13:31:53.328Z,102515.86
2019-03-22T13:34:24.677Z,102516.11
2019-03-22T13:36:55.947Z,102515.55
2019-03-22T13:39:27.189Z,102507.05
2019-03-22T13:41:58.483Z,102506.94
2019-03-22T13:44:29.899Z,102503.41
2019-03-22T13:47:01.222Z,102496.81
2019-03-22T13:49:32.698Z,102496.69
2019-03-22T13:52:04.220Z,102481.46
2019-03-22T13:54:35.699Z,102481.30
2019-03-22T13:57:07.036Z,102484.91
2019-03-22T13:59:38.433Z,102481.56
2019-03-22T14:02:09.741Z,102477.72
2019-03-22T14:04:40.998Z,102471.88
2019-03-22T14:07:12.285Z,102470.72
2019-03-22T14:09:43.408Z,102465.91
2019-03-22T14:12:14.642Z,102467.80
2019-03-22T14:14:46.226Z,102461.95
2019-03-22T14:17:17.566Z,102458.34
2019-03-22T14:19:48.810Z,102452.81
2019-03-22T14:22:20.080Z,102454.42
2019-03-22T14:25:10.655Z,102443.17
2019-03-22T14:28:02.822Z,102441.05
2019-03-22T14:30:34.165Z,102433.47
2019-03-22T14:33:12.818Z,102431.27
2019-03-22T14:35:38.524Z,102422.44
2019-03-22T14:38:09.851Z,102426.75
2019-03-22T14:40:41.170Z,102418.98
2019-03-22T14:43:12.413Z,102410.88
2019-03-22T14:45:43.697Z,102410.55
2019-03-22T14:48:14.950Z,102406.04
2019-03-22T14:50:46.282Z,102399.95
2019-03-22T14:53:17.580Z,102392.55
2019-03-22T14:55:48.810Z,102389.83
2019-03-22T14:58:20.149Z,102384.12
2019-03-22T15:00:51.459Z,102371.78
2019-03-22T15:03:28.585Z,102369.69
2019-03-22T15:05:59.846Z,102359.89
2019-03-22T15:08:31.133Z,102356.27
2019-03-22T15:11:02.531Z,102347.33
2019-03-22T15:13:44.650Z,102338.13
2019-03-22T15:16:47.615Z,102348.45
2019-03-22T15:19:50.083Z,102338.12
2019-03-22T15:22:43.520Z,102331.48
2019-03-22T15:25:40.123Z,102324.34
2019-03-22T15:28:34.072Z,102322.86
2019-03-22T15:31:39.435Z,102315.00
2019-03-22T15:34:28.255Z,102310.23
2019-03-22T15:37:27.175Z,102314.02
2019-03-22T15:40:05.250Z,102315.84
2019-03-22T15:42:36.617Z,102307.03
2019-03-22T15:45:11.930Z,102300.97
2019-03-22T15:47:43.358Z,102300.81
2019-03-22T15:50:16.744Z,102292.95
2019-03-22T15:52:48.111Z,102287.36
2019-03-22T15:55:19.576Z,102289.47
2019-03-22T15:57:50.893Z,102288.06
2019-03-22T16:00:22.348Z,102281.53
2019-03-22T16:02:53.649Z,102283.34
2019-03-22T16:05:24.970Z,102280.08
2019-03-22T16:07:56.301Z,102270.87
2019-03-22T16:10:27.646Z,102270.09
2019-03-22T16:12:58.983Z,102262.60
2019-03-22T16:15:30.319Z,102259.99
2019-03-22T16:18:01.711Z,102248.84
2019-03-22T16:20:32.969Z,102249.45
2019-03-22T16:23:04.382Z,102248.59
2019-03-22T16:25:54.524Z,102252.57
2019-03-22T16:28:25.798Z,102248.44
2019-03-22T16:30:57.060Z,102242.11
2019-03-22T16:33:28.320Z,102235.65
2019-03-22T16:35:59.665Z,102236.08
2019-03-22T16:38:30.950Z,102240.22
2019-03-22T16:41:02.335Z,102240.80
2019-03-22T16:43:33.595Z,102233.05
2019-03-22T16:46:04.961Z,102239.90
2019-03-22T16:48:36.370Z,102237.83
2019-03-22T16:51:07.812Z,102237.11
2019-03-22T16:53:39.142Z,102227.02
2019-03-22T16:56:10.431Z,102230.48
2019-03-22T16:58:41.831Z,102222.46
2019-03-22T17:01:13.356Z,102221.42
2019-03-22T17:03:44.730Z,102221.95
2019-03-22T17:06:16.073Z,102217.16
2019-03-22T17:08:47.303Z,102220.37
2019-03-22T17:11:18.656Z,102220.05
2019-03-22T17:13:50.072Z,102212.08
2019-03-22T17:16:21.429Z,102215.31
2019-03-22T17:18:52.587Z,102212.40
2019-03-22T17:21:23.837Z,102217.50
2019-03-22T17:23:55.160Z,102213.37
2019-03-22T17:26:26.442Z,102216.39
2019-03-22T17:28:57.793Z,102214.41
2019-03-22T17:31:29.123Z,102214.77
2019-03-22T17:34:00.484Z,102212.39
2019-03-22T17:36:31.836Z,102208.12
2019-03-22T17:39:03.278Z,102208.95
2019-03-22T17:41:34.692Z,102214.69
2019-03-22T17:44:06.051Z,102210.25
2019-03-22T17:46:37.436Z,102211.03
2019-03-22T17:49:08.748Z,102214.95
2019-03-22T17:51:40.135Z,102218.44
2019-03-22T17:54:11.450Z,102218.02
2019-03-22T17:56:42.760Z,102212.98
2019-03-22T17:59:14.126Z,102217.03
2019-03-22T18:01:45.584Z,102215.62
2019-03-22T18:04:23.842Z,102211.86
2019-03-22T18:06:49.970Z,102214.88
2019-03-22T18:09:22.532Z,102215.98
2019-03-22T18:11:53.825Z,102211.41
2019-03-22T18:14:26.941Z,102215.58
2019-03-22T18:16:57.993Z,102219.98
2019-03-22T18:19:29.283Z,102212.83
2019-03-22T18:22:00.444Z,102214.77
2019-03-22T18:24:31.667Z,102215.91
2019-03-22T18:27:03.119Z,102218.02
2019-03-22T18:29:34.386Z,102215.14
2019-03-22T18:32:05.723Z,102216.73
2019-03-22T18:34:37.622Z,102215.25
2019-03-22T18:37:08.943Z,102210.00
2019-03-22T18:39:40.302Z,102210.99
2019-03-22T18:42:11.596Z,102214.00
2019-03-22T18:44:42.906Z,102207.80
2019-03-22T18:47:14.126Z,102200.70
2019-03-22T18:49:45.653Z,102201.65
2019-03-22T18:52:17.032Z,102201.65
2019-03-22T18:54:48.736Z,102197.77
2019-03-22T18:57:19.955Z,102202.29
2019-03-22T18:59:51.186Z,102197.96
2019-03-22T19:02:22.531Z,102198.69
2019-03-22T19:04:53.855Z,102201.06
2019-03-22T19:07:25.293Z,102196.63
2019-03-22T19:09:56.711Z,102195.64
2019-03-22T19:12:28.349Z,102195.14
2019-03-22T19:14:59.666Z,102196.27
2019-03-22T19:17:30.947Z,102194.76
2019-03-22T19:20:02.229Z,102185.61
2019-03-22T19:22:33.536Z,102184.69
2019-03-22T19:25:05.193Z,102192.13
2019-03-22T19:27:36.475Z,102197.13
2019-03-22T19:30:08.881Z,102194.22
2019-03-22T19:32:40.346Z,102193.89
2019-03-22T19:35:13.212Z,102186.56
2019-03-22T19:37:44.585Z,102189.98
2019-03-22T19:40:17.515Z,102187.70
2019-03-22T19:42:48.833Z,102182.45
2019-03-22T19:45:20.301Z,102186.97
2019-03-22T19:47:51.556Z,102186.80
2019-03-22T19:50:22.919Z,102187.75
2019-03-22T19:52:54.208Z,102184.15
2019-03-22T19:55:25.508Z,102179.45
2019-03-22T19:57:57.354Z,102181.73
2019-03-22T20:00:28.703Z,102184.73
2019-03-22T20:02:59.992Z,102175.89
2019-03-22T20:05:33.204Z,102175.89
2019-03-22T20:08:05.095Z,102185.33
2019-03-22T20:10:38.921Z,102184.01
2019-03-22T20:13:10.352Z,102187.20
2019-03-22T20:15:41.788Z,102181.18
2019-03-22T20:18:13.150Z,102179.13
2019-03-22T20:20:44.579Z,102181.36
2019-03-22T20:23:15.960Z,102182.59
2019-03-22T20:25:47.208Z,102177.02
2019-03-22T20:28:18.509Z,102179.54
2019-03-22T20:30:49.882Z,102175.02
2019-03-22T20:33:21.192Z,102175.38
2019-03-22T20:35:52.466Z,102173.11
2019-03-22T20:38:24.988Z,102172.78
2019-03-22T20:40:56.433Z,102170.73
2019-03-22T20:43:27.734Z,102164.95
2019-03-22T20:45:59.046Z,102170.16
2019-03-22T20:48:30.351Z,102166.50
2019-03-22T20:51:01.752Z,102162.39
2019-03-22T20:53:33.105Z,102156.52
2019-03-22T20:56:04.667Z,102155.96
2019-03-22T20:58:36.055Z,102145.55
2019-03-22T21:01:07.458Z,102155.96
2019-03-22T21:03:38.759Z,102155.05
2019-03-22T21:06:10.546Z,102151.73
2019-03-22T21:08:42.350Z,102151.41
2019-03-22T21:11:16.926Z,102150.78
2019-03-22T21:13:48.287Z,102154.61
2019-03-22T21:16:19.661Z,102148.31
2019-03-22T21:18:51.070Z,102141.70
2019-03-22T21:21:25.392Z,102151.55
2019-03-22T21:23:55.735Z,102149.45
2019-03-22T21:26:27.461Z,102146.22
2019-03-22T21:28:58.945Z,102144.94
2019-03-22T21:31:30.256Z,102136.25
2019-03-22T21:34:01.671Z,102134.70
2019-03-22T21:36:33.072Z,102121.52
2019-03-22T21:39:06.445Z,102125.03
2019-03-22T21:41:38.205Z,102117.20
2019-03-22T21:44:10.002Z,102115.55
2019-03-22T21:46:42.682Z,102104.94
2019-03-22T21:49:14.272Z,102108.17
2019-03-22T21:51:45.743Z,102109.50
2019-03-22T21:54:17.149Z,102104.34
2019-03-22T21:56:48.524Z,102100.75
2019-03-22T21:59:19.901Z,102091.44
2019-03-22T22:01:51.221Z,102082.56
2019-03-22T22:04:22.500Z,102090.45
2019-03-22T22:06:54.037Z,102081.24
2019-03-22T22:09:25.393Z,102080.30
2019-03-22T22:11:56.751Z,102072.95
2019-03-22T22:14:28.041Z,102071.27
2019-03-22T22:16:59.472Z,102071.81
2019-03-22T22:19:31.180Z,102061.66
2019-03-22T22:22:02.424Z,102062.20
2019-03-22T22:24:33.750Z,102057.66
2019-03-22T22:27:13.496Z,102049.64
2019-03-22T22:29:38.161Z,102049.09
2019-03-22T22:32:09.530Z,102045.72
2019-03-22T22:34:40.725Z,102042.62
2019-03-22T22:37:12.099Z,102042.98
2019-03-22T22:39:43.458Z,102042.62
2019-03-22T22:42:14.815Z,102031.75
2019-03-22T22:44:46.010Z,102031.75
2019-03-22T22:47:17.429Z,102024.87
2019-03-22T22:49:49.063Z,102020.91
2019-03-22T22:52:20.424Z,102016.95
2019-03-22T22:54:51.759Z,102019.59
2019-03-22T22:57:23.108Z,102020.81
2019-03-22T22:59:54.472Z,102015.63
2019-03-22T23:02:25.807Z,102013.57
2019-03-22T23:04:57.151Z,102015.45
2019-03-22T23:07:28.443Z,102011.48
2019-03-22T23:09:59.787Z,102013.08
2019-03-22T23:12:31.087Z,102012.25
2019-03-22T23:15:02.449Z,102009.80
2019-03-22T23:17:35.865Z,102003.02
2019-03-22T23:20:07.673Z,101998.31
2019-03-22T23:22:39.057Z,102004.52
2019-03-22T23:25:11.080Z,102000.65
2019-03-22T23:27:42.385Z,102004.16
2019-03-22T23:30:14.636Z,102007.56
2019-03-22T23:32:46.010Z,102005.69
2019-03-22T23:35:17.322Z,101999.27
2019-03-22T23:37:48.644Z,101999.82
2019-03-22T23:40:19.991Z,101992.98
2019-03-22T23:42:51.335Z,101984.23
2019-03-22T23:45:22.641Z,101987.23
2019-03-22T23:47:53.974Z,101992.14
2019-03-22T23:50:25.144Z,101983.27
2019-03-22T23:52:56.477Z,101979.89
2019-03-22T23:55:27.823Z,101980.94
2019-03-22T23:57:59.225Z,101978.41
